Asotin, Washington
Current Conditions -  °F | °C
As of 3:56 AM on Friday 24 Oct 2014 (Local Time) from KLWS Reporting Station
Overcast Overcast  
Wind Chill: 10°   Ceiling: 6500
Heat Index: 10°   Visibility: 10mi
Dew Point:   Wind: 3mph
Humidity: 93%   Direction: 40°NE
Pressure: 30.07"   Gusts: NA
Location:  46.34°N, 117.05°W
Report Text: KLWS 241056Z AUTO 04003KT 10SM BKN065 BKN080 OVC090 10/09 A3007 RMK AO2 SLP183 T01000089
Loading
Personal Weather Stations






























Interactive Weather Map
Tropical Storm Tracking
New forecast layout! Learn more

10-Day Weather Forecast

Advertisements
Track Severe Weather on mobile